createdAt,value
2023-04-25T00:01:33.015Z,58.60
2023-04-25T00:04:02.581Z,58.60
2023-04-25T00:06:32.685Z,58.60
2023-04-25T00:09:01.710Z,58.50
2023-04-25T00:11:29.405Z,58.60
2023-04-25T00:13:58.155Z,58.60
2023-04-25T00:16:25.863Z,58.50
2023-04-25T00:18:54.812Z,58.50
2023-04-25T00:21:23.168Z,58.50
2023-04-25T00:23:51.331Z,58.50
2023-04-25T00:26:21.812Z,58.50
2023-04-25T00:28:49.715Z,58.50
2023-04-25T00:31:17.457Z,58.50
2023-04-25T00:33:45.156Z,58.50
2023-04-25T00:36:13.213Z,58.50
2023-04-25T00:38:40.967Z,58.50
2023-04-25T00:41:09.478Z,58.50
2023-04-25T00:43:38.717Z,58.50
2023-04-25T00:46:06.474Z,58.50
2023-04-25T00:48:34.157Z,58.50
2023-04-25T00:51:01.952Z,58.60
2023-04-25T00:53:30.180Z,58.50
2023-04-25T00:55:57.831Z,58.50
2023-04-25T00:58:25.565Z,59.10
2023-04-25T01:00:54.875Z,58.50
2023-04-25T01:03:22.803Z,58.50
2023-04-25T01:05:50.737Z,59.20
2023-04-25T01:08:18.633Z,58.50
2023-04-25T01:10:46.399Z,58.50
2023-04-25T01:13:14.078Z,58.50
2023-04-25T01:15:41.799Z,58.40
2023-04-25T01:18:10.874Z,58.40
2023-04-25T01:20:38.591Z,58.40
2023-04-25T01:23:07.670Z,58.80
2023-04-25T01:25:35.550Z,58.40
2023-04-25T01:28:03.454Z,58.40
2023-04-25T01:30:32.827Z,58.40
2023-04-25T01:33:00.558Z,58.50
2023-04-25T01:35:30.225Z,58.50
2023-04-25T01:37:57.971Z,58.40
2023-04-25T01:40:26.965Z,58.40
2023-04-25T01:42:54.620Z,58.40
2023-04-25T01:45:22.724Z,58.50
2023-04-25T01:47:51.367Z,58.40
2023-04-25T01:50:20.329Z,58.40
2023-04-25T01:52:49.093Z,58.40
2023-04-25T01:55:17.254Z,58.40
2023-04-25T01:57:56.040Z,58.40
2023-04-25T02:00:33.429Z,58.40
2023-04-25T02:03:01.427Z,58.40
2023-04-25T02:05:36.703Z,58.40
2023-04-25T02:08:06.858Z,58.30
2023-04-25T02:10:34.607Z,58.40
2023-04-25T02:13:11.918Z,58.90
2023-04-25T02:15:59.945Z,58.40
2023-04-25T02:18:28.061Z,58.40
2023-04-25T02:20:55.778Z,58.40
2023-04-25T02:23:23.433Z,58.40
2023-04-25T02:25:51.108Z,58.40
2023-04-25T02:28:20.090Z,58.40
2023-04-25T02:30:47.758Z,58.50
2023-04-25T02:33:17.806Z,58.60
2023-04-25T02:35:45.487Z,58.60
2023-04-25T02:38:13.131Z,58.70
2023-04-25T02:40:41.604Z,58.70
2023-04-25T02:43:09.348Z,58.80
2023-04-25T02:45:38.694Z,58.80
2023-04-25T02:48:06.871Z,59.40
2023-04-25T02:50:34.564Z,58.80
2023-04-25T02:53:02.316Z,58.90
2023-04-25T02:55:36.672Z,58.90
2023-04-25T02:58:05.996Z,58.90
2023-04-25T03:00:43.188Z,58.90
2023-04-25T03:03:11.159Z,59.00
2023-04-25T03:05:38.878Z,58.90
2023-04-25T03:08:06.856Z,58.90
2023-04-25T03:10:35.546Z,59.00
2023-04-25T03:13:07.273Z,59.00
2023-04-25T03:15:35.136Z,59.00
2023-04-25T03:18:04.251Z,59.00
2023-04-25T03:20:32.015Z,59.00
2023-04-25T03:22:59.670Z,59.00
2023-04-25T03:25:28.672Z,59.00
2023-04-25T03:27:56.407Z,59.00
2023-04-25T03:30:24.193Z,59.10
2023-04-25T03:32:51.911Z,59.10
2023-04-25T03:35:21.272Z,59.10
2023-04-25T03:37:49.239Z,59.10
2023-04-25T03:40:21.779Z,59.10
2023-04-25T03:43:09.238Z,59.10
2023-04-25T03:45:38.407Z,59.10
2023-04-25T03:48:06.546Z,59.10
2023-04-25T03:50:36.031Z,59.10
2023-04-25T03:53:04.477Z,59.10
2023-04-25T03:55:43.582Z,59.20
2023-04-25T03:58:11.542Z,59.10
2023-04-25T04:00:39.787Z,59.20
2023-04-25T04:03:07.701Z,59.20
2023-04-25T04:05:38.196Z,59.20
2023-04-25T04:08:06.182Z,59.20
2023-04-25T04:10:34.185Z,59.30
2023-04-25T04:13:01.925Z,59.20
2023-04-25T04:15:29.698Z,59.20
2023-04-25T04:17:57.522Z,59.10
2023-04-25T04:20:25.310Z,59.10
2023-04-25T04:22:54.729Z,59.10
2023-04-25T04:25:23.379Z,59.10
2023-04-25T04:28:08.732Z,59.20
2023-04-25T04:30:55.200Z,59.10
2023-04-25T04:33:24.400Z,59.10
2023-04-25T04:35:59.499Z,59.10
2023-04-25T04:38:28.581Z,59.10
2023-04-25T04:40:59.766Z,59.10
2023-04-25T04:43:42.724Z,59.10
2023-04-25T04:46:26.128Z,59.10
2023-04-25T04:49:14.573Z,59.20
2023-04-25T04:52:01.993Z,59.10
2023-04-25T04:54:42.905Z,59.10
2023-04-25T04:57:24.149Z,59.00
2023-04-25T04:59:58.667Z,59.00
2023-04-25T05:02:45.281Z,59.00
2023-04-25T05:05:30.539Z,59.00
2023-04-25T05:08:21.097Z,59.00
2023-04-25T05:11:25.924Z,59.00
2023-04-25T05:14:00.977Z,59.00
2023-04-25T05:16:48.631Z,58.90
2023-04-25T05:19:26.611Z,59.00
2023-04-25T05:22:11.447Z,59.00
2023-04-25T05:24:54.478Z,59.00
2023-04-25T05:27:36.444Z,59.00
2023-04-25T05:30:30.565Z,59.00
2023-04-25T05:33:05.749Z,59.00
2023-04-25T05:35:34.223Z,59.00
2023-04-25T05:38:02.344Z,59.00
2023-04-25T05:40:50.027Z,58.90
2023-04-25T05:43:37.685Z,58.90
2023-04-25T05:46:25.682Z,58.90
2023-04-25T05:49:12.034Z,58.90
2023-04-25T05:51:58.426Z,58.80
2023-04-25T05:54:35.268Z,58.80
2023-04-25T05:57:03.894Z,58.80
2023-04-25T05:59:33.356Z,58.80
2023-04-25T06:02:01.751Z,58.70
2023-04-25T06:04:32.957Z,58.70
2023-04-25T06:07:02.224Z,58.70
2023-04-25T06:09:29.919Z,58.60
2023-04-25T06:11:57.648Z,58.60
2023-04-25T06:14:27.185Z,58.60
2023-04-25T06:16:57.260Z,58.50
2023-04-25T06:19:24.924Z,58.50
2023-04-25T06:21:52.640Z,58.50
2023-04-25T06:24:20.887Z,58.40
2023-04-25T06:26:48.955Z,58.40
2023-04-25T06:29:17.096Z,58.40
2023-04-25T06:31:45.497Z,58.30
2023-04-25T06:34:14.678Z,58.30
2023-04-25T06:36:43.117Z,58.20
2023-04-25T06:39:13.601Z,58.20
2023-04-25T06:41:41.700Z,58.20
2023-04-25T06:44:16.413Z,58.10
2023-04-25T06:46:54.295Z,58.10
2023-04-25T06:49:23.533Z,58.00
2023-04-25T06:51:51.261Z,58.00
2023-04-25T06:54:19.714Z,58.00
2023-04-25T06:56:57.799Z,58.00
2023-04-25T06:59:25.616Z,57.90
2023-04-25T07:01:53.339Z,58.00
2023-04-25T07:04:27.592Z,57.90
2023-04-25T07:07:01.798Z,57.80
2023-04-25T07:09:37.688Z,57.90
2023-04-25T07:12:06.849Z,57.80
2023-04-25T07:14:35.560Z,57.70
2023-04-25T07:17:03.428Z,57.60
2023-04-25T07:19:35.547Z,57.50
2023-04-25T07:22:04.176Z,57.40
2023-04-25T07:24:33.849Z,57.30
2023-04-25T07:27:02.069Z,57.30
2023-04-25T07:29:48.543Z,57.30
2023-04-25T07:32:16.426Z,57.30
2023-04-25T07:34:45.749Z,57.20
2023-04-25T07:37:14.976Z,57.10
2023-04-25T07:39:56.454Z,57.10
2023-04-25T07:42:24.215Z,57.10
2023-04-25T07:44:52.665Z,57.00
2023-04-25T07:47:20.977Z,57.00
2023-04-25T07:49:50.472Z,56.90
2023-04-25T07:52:18.379Z,56.80
2023-04-25T07:54:52.102Z,56.80
2023-04-25T07:57:26.106Z,56.70
2023-04-25T07:59:55.562Z,56.70
2023-04-25T08:02:24.506Z,56.60
2023-04-25T08:04:53.728Z,56.60
2023-04-25T08:07:22.057Z,56.50
2023-04-25T08:09:53.538Z,56.50
2023-04-25T08:12:26.935Z,56.40
2023-04-25T08:14:54.696Z,56.30
2023-04-25T08:17:24.705Z,56.30
2023-04-25T08:19:53.723Z,56.10
2023-04-25T08:22:27.563Z,56.00
2023-04-25T08:25:11.718Z,56.00
2023-04-25T08:27:40.608Z,56.00
2023-04-25T08:30:09.766Z,56.00
2023-04-25T08:32:39.850Z,55.90
2023-04-25T08:35:27.653Z,55.90
2023-04-25T08:37:55.687Z,56.00
2023-04-25T08:40:27.072Z,56.00
2023-04-25T08:42:57.302Z,56.00
2023-04-25T08:45:25.931Z,56.00
2023-04-25T08:47:53.875Z,56.00
2023-04-25T08:50:23.170Z,56.00
2023-04-25T08:52:56.356Z,56.00
2023-04-25T08:55:24.520Z,56.00
2023-04-25T08:57:57.579Z,56.00
2023-04-25T09:00:25.496Z,56.00
2023-04-25T09:02:53.269Z,55.80
2023-04-25T09:05:21.849Z,55.80
2023-04-25T09:07:54.652Z,55.80
2023-04-25T09:10:22.338Z,55.70
2023-04-25T09:13:04.561Z,55.60
2023-04-25T09:15:33.920Z,55.40
2023-04-25T09:18:10.563Z,55.40
2023-04-25T09:20:59.673Z,55.40
2023-04-25T09:23:30.545Z,55.20
2023-04-25T09:25:58.889Z,55.30
2023-04-25T09:28:30.094Z,55.40
2023-04-25T09:30:59.700Z,55.60
2023-04-25T09:33:47.689Z,55.40
2023-04-25T09:36:15.715Z,55.40
2023-04-25T09:38:59.779Z,55.40
2023-04-25T09:41:35.224Z,55.30
2023-04-25T09:44:04.533Z,55.40
2023-04-25T09:46:37.354Z,55.40
2023-04-25T09:49:08.646Z,55.30
2023-04-25T09:51:46.555Z,55.20
2023-04-25T09:54:15.570Z,55.20
2023-04-25T09:56:48.525Z,55.20
2023-04-25T09:59:16.252Z,55.20
2023-04-25T10:01:43.998Z,55.20
2023-04-25T10:04:21.941Z,55.20
2023-04-25T10:06:55.687Z,55.30
2023-04-25T10:09:26.896Z,55.20
2023-04-25T10:11:54.966Z,55.00
2023-04-25T10:14:23.244Z,55.00
2023-04-25T10:16:54.506Z,55.10
2023-04-25T10:19:22.179Z,55.00
2023-04-25T10:21:52.393Z,54.90
2023-04-25T10:24:20.226Z,54.80
2023-04-25T10:26:49.288Z,54.60
2023-04-25T10:29:23.761Z,54.40
2023-04-25T10:31:51.532Z,54.20
2023-04-25T10:34:19.265Z,54.40
2023-04-25T10:36:51.780Z,54.40
2023-04-25T10:39:23.852Z,54.30
2023-04-25T10:41:57.465Z,54.10
2023-04-25T10:44:25.236Z,53.90
2023-04-25T10:46:52.978Z,53.90
2023-04-25T10:49:34.218Z,54.40
2023-04-25T10:52:26.973Z,53.50
2023-04-25T10:54:55.572Z,53.30
2023-04-25T10:57:31.586Z,53.50
2023-04-25T11:00:17.878Z,53.10
2023-04-25T11:02:47.982Z,53.00
2023-04-25T11:05:23.774Z,53.30
2023-04-25T11:08:03.979Z,53.00
2023-04-25T11:10:36.302Z,53.10
2023-04-25T11:13:05.468Z,53.10
2023-04-25T11:15:33.164Z,53.00
2023-04-25T11:18:01.206Z,52.90
2023-04-25T11:20:30.090Z,52.80
2023-04-25T11:22:59.449Z,52.70
2023-04-25T11:25:27.351Z,52.50
2023-04-25T11:27:55.490Z,52.50
2023-04-25T11:30:25.839Z,52.50
2023-04-25T11:32:53.787Z,52.40
2023-04-25T11:35:23.701Z,52.40
2023-04-25T11:37:51.563Z,52.40
2023-04-25T11:40:19.294Z,52.50
2023-04-25T11:42:47.838Z,52.80
2023-04-25T11:45:16.206Z,53.00
2023-04-25T11:47:45.427Z,53.10
2023-04-25T11:50:15.158Z,53.00
2023-04-25T11:52:43.825Z,53.00
2023-04-25T11:55:14.355Z,53.00
2023-04-25T11:57:42.214Z,52.80
2023-04-25T12:00:14.509Z,52.80
2023-04-25T12:02:47.172Z,52.60
2023-04-25T12:05:31.043Z,52.60
2023-04-25T12:08:00.383Z,52.50
2023-04-25T12:10:28.120Z,52.50
2023-04-25T12:12:55.845Z,52.30
2023-04-25T12:15:26.052Z,52.20
2023-04-25T12:17:55.951Z,52.10
2023-04-25T12:20:26.064Z,52.00
2023-04-25T12:22:53.952Z,52.00
2023-04-25T12:25:37.845Z,52.00
2023-04-25T12:28:15.572Z,51.80
2023-04-25T12:31:05.094Z,51.70
2023-04-25T12:33:35.231Z,51.60
2023-04-25T12:36:06.412Z,51.80
2023-04-25T12:38:37.727Z,51.70
2023-04-25T12:41:05.638Z,51.40
2023-04-25T12:43:33.294Z,51.20
2023-04-25T12:46:01.199Z,50.90
2023-04-25T12:48:29.132Z,50.80
2023-04-25T12:50:58.165Z,50.90
2023-04-25T12:53:25.999Z,50.70
2023-04-25T12:55:56.651Z,50.60
2023-04-25T12:58:24.641Z,50.50
2023-04-25T13:00:52.374Z,50.50
2023-04-25T13:03:20.261Z,50.50
2023-04-25T13:05:48.212Z,50.50
2023-04-25T13:08:17.308Z,50.40
2023-04-25T13:10:44.958Z,50.30
2023-04-25T13:13:12.685Z,50.20
2023-04-25T13:15:40.458Z,50.20
2023-04-25T13:18:08.554Z,50.50
2023-04-25T13:20:36.608Z,50.40
2023-04-25T13:23:04.297Z,50.40
2023-04-25T13:25:33.292Z,50.60
2023-04-25T13:28:01.023Z,50.70
2023-04-25T13:30:28.679Z,50.90
2023-04-25T13:32:57.895Z,51.00
2023-04-25T13:35:25.679Z,51.00
2023-04-25T13:37:54.391Z,51.10
2023-04-25T13:40:23.914Z,51.20
2023-04-25T13:42:54.268Z,51.20
2023-04-25T13:45:22.069Z,51.10
2023-04-25T13:47:49.820Z,51.10
2023-04-25T13:50:17.708Z,51.20
2023-04-25T13:52:45.963Z,51.20
2023-04-25T13:55:13.652Z,51.00
2023-04-25T13:57:41.520Z,51.00
2023-04-25T14:00:12.032Z,51.10
2023-04-25T14:02:39.861Z,51.30
2023-04-25T14:05:08.943Z,51.30
2023-04-25T14:07:36.798Z,51.40
2023-04-25T14:10:05.108Z,50.90
2023-04-25T14:12:33.019Z,51.10
2023-04-25T14:15:01.019Z,51.00
2023-04-25T14:17:30.298Z,51.80
2023-04-25T14:19:58.049Z,51.90
2023-04-25T14:22:25.857Z,51.90
2023-04-25T14:24:53.667Z,52.10
2023-04-25T14:27:21.774Z,52.50
2023-04-25T14:29:49.486Z,51.80
2023-04-25T14:32:17.287Z,51.60
2023-04-25T14:34:46.257Z,51.30
2023-04-25T14:37:13.991Z,51.50
2023-04-25T14:39:41.760Z,51.50
2023-04-25T14:42:09.456Z,51.30
2023-04-25T14:44:37.110Z,51.30
2023-04-25T14:47:05.080Z,51.50
2023-04-25T14:49:34.183Z,52.00
2023-04-25T14:52:04.221Z,52.50
2023-04-25T14:54:32.251Z,52.40
2023-04-25T14:56:59.932Z,52.20
2023-04-25T14:59:27.984Z,51.90
2023-04-25T15:01:58.410Z,51.60
2023-04-25T15:04:27.442Z,49.80
2023-04-25T15:06:55.354Z,48.60
2023-04-25T15:09:25.158Z,48.00
2023-04-25T15:11:52.883Z,47.40
2023-04-25T15:14:20.582Z,45.30
2023-04-25T15:16:48.300Z,44.80
2023-04-25T15:19:16.178Z,43.90
2023-04-25T15:21:43.872Z,43.90
2023-04-25T15:24:11.951Z,43.10
2023-04-25T15:26:41.624Z,43.10
2023-04-25T15:29:09.316Z,43.40
2023-04-25T15:31:36.998Z,43.40
2023-04-25T15:34:04.682Z,43.90
2023-04-25T15:36:32.659Z,43.70
2023-04-25T15:39:00.348Z,44.10
2023-04-25T15:41:28.113Z,44.50
2023-04-25T15:43:57.086Z,44.20
2023-04-25T15:46:24.756Z,44.10
2023-04-25T15:48:52.549Z,44.50
2023-04-25T15:51:20.205Z,44.70
2023-04-25T15:53:48.118Z,42.30
2023-04-25T15:56:15.865Z,41.60
2023-04-25T15:58:43.624Z,40.40
2023-04-25T16:01:12.707Z,39.90
2023-04-25T16:03:40.856Z,39.20
2023-04-25T16:06:08.998Z,38.80
2023-04-25T16:08:36.695Z,38.70
2023-04-25T16:11:05.197Z,38.60
2023-04-25T16:13:33.608Z,38.10
2023-04-25T16:16:01.914Z,38.00
2023-04-25T16:18:31.058Z,38.10
2023-04-25T16:20:58.737Z,38.30
2023-04-25T16:23:27.416Z,38.50
2023-04-25T16:25:55.762Z,38.90
2023-04-25T16:28:23.437Z,39.80
2023-04-25T16:30:51.098Z,40.30
2023-04-25T16:33:18.830Z,41.40
2023-04-25T16:35:50.037Z,41.90
2023-04-25T16:38:17.709Z,42.00
2023-04-25T16:40:45.468Z,42.50
2023-04-25T16:43:13.159Z,42.80
2023-04-25T16:45:41.238Z,43.00
2023-04-25T16:48:08.974Z,43.10
2023-04-25T16:50:36.651Z,43.30
2023-04-25T16:53:05.657Z,43.70
2023-04-25T16:55:33.344Z,44.00
2023-04-25T16:58:01.179Z,44.50
2023-04-25T17:00:29.049Z,45.00
2023-04-25T17:02:56.893Z,45.60
2023-04-25T17:05:25.935Z,46.10
2023-04-25T17:07:53.649Z,46.60
2023-04-25T17:10:22.718Z,46.90
2023-04-25T17:12:50.464Z,47.40
2023-04-25T17:15:18.249Z,47.60
2023-04-25T17:17:46.000Z,47.50
2023-04-25T17:20:14.868Z,47.50
2023-04-25T17:22:42.707Z,47.80
2023-04-25T17:25:11.190Z,48.10
2023-04-25T17:27:40.372Z,47.80
2023-04-25T17:30:09.453Z,48.40
2023-04-25T17:32:37.153Z,49.30
2023-04-25T17:35:05.409Z,50.00
2023-04-25T17:37:33.627Z,50.40
2023-04-25T17:40:01.504Z,50.50
2023-04-25T17:42:29.518Z,51.30
2023-04-25T17:44:58.573Z,51.50
2023-04-25T17:47:26.276Z,51.80
2023-04-25T17:49:54.601Z,51.70
2023-04-25T17:52:22.310Z,51.90
2023-04-25T17:54:50.033Z,52.40
2023-04-25T17:57:17.740Z,52.10
2023-04-25T17:59:45.439Z,52.50
2023-04-25T18:02:14.525Z,52.20
2023-04-25T18:04:42.672Z,53.20
2023-04-25T18:07:10.895Z,52.90
2023-04-25T18:09:38.612Z,52.60
2023-04-25T18:12:08.026Z,52.60
2023-04-25T18:14:36.636Z,53.90
2023-04-25T18:17:06.987Z,53.00
2023-04-25T18:19:36.004Z,53.60
2023-04-25T18:22:03.970Z,54.00
2023-04-25T18:24:32.098Z,53.90
2023-04-25T18:27:01.294Z,54.60
2023-04-25T18:29:33.444Z,54.40
2023-04-25T18:32:02.005Z,54.50
2023-04-25T18:34:29.850Z,54.80
2023-04-25T18:36:58.839Z,54.40
2023-04-25T18:39:27.754Z,54.40
2023-04-25T18:42:03.244Z,54.80
2023-04-25T18:44:33.654Z,54.30
2023-04-25T18:47:01.878Z,54.60
2023-04-25T18:49:29.627Z,55.00
2023-04-25T18:51:58.693Z,55.30
2023-04-25T18:54:26.711Z,55.70
2023-04-25T18:56:55.661Z,55.80
2023-04-25T18:59:23.911Z,56.10
2023-04-25T19:01:53.455Z,56.20
2023-04-25T19:04:21.363Z,56.40
2023-04-25T19:06:49.888Z,57.60
2023-04-25T19:09:18.900Z,57.20
2023-04-25T19:11:46.642Z,49.90
2023-04-25T19:14:14.907Z,46.60
2023-04-25T19:16:42.658Z,47.80
2023-04-25T19:19:10.734Z,49.70
2023-04-25T19:21:38.407Z,50.60
2023-04-25T19:24:06.880Z,50.40
2023-04-25T19:26:35.982Z,50.00
2023-04-25T19:29:04.794Z,50.00
2023-04-25T19:31:32.831Z,50.70
2023-04-25T19:34:00.943Z,51.30
2023-04-25T19:36:28.790Z,51.80
2023-04-25T19:39:01.952Z,47.70
2023-04-25T19:41:29.794Z,48.90
2023-04-25T19:44:00.684Z,49.40
2023-04-25T19:46:28.528Z,50.00
2023-04-25T19:48:56.344Z,49.80
2023-04-25T19:51:24.122Z,50.20
2023-04-25T19:53:53.482Z,50.40
2023-04-25T19:56:21.347Z,50.60
2023-04-25T19:58:49.651Z,50.70
2023-04-25T20:01:21.981Z,50.80
2023-04-25T20:03:51.575Z,50.80
2023-04-25T20:06:19.868Z,51.10
2023-04-25T20:08:47.941Z,51.20
2023-04-25T20:11:16.099Z,51.20
2023-04-25T20:13:43.801Z,51.30
2023-04-25T20:16:11.694Z,51.40
2023-04-25T20:18:41.491Z,51.50
2023-04-25T20:21:09.401Z,51.80
2023-04-25T20:23:37.117Z,52.00
2023-04-25T20:26:05.044Z,51.80
2023-04-25T20:28:33.068Z,51.60
2023-04-25T20:31:01.582Z,51.50
2023-04-25T20:33:29.404Z,51.60
2023-04-25T20:35:58.419Z,51.60
2023-04-25T20:38:26.890Z,51.60
2023-04-25T20:40:56.261Z,51.50
2023-04-25T20:43:25.775Z,51.60
2023-04-25T20:45:54.816Z,51.50
2023-04-25T20:48:22.752Z,51.30
2023-04-25T20:50:50.463Z,51.20
2023-04-25T20:53:19.969Z,51.40
2023-04-25T20:55:48.051Z,51.20
2023-04-25T20:58:16.115Z,51.20
2023-04-25T21:00:44.027Z,51.30
2023-04-25T21:03:13.007Z,51.20
2023-04-25T21:05:40.938Z,51.00
2023-04-25T21:08:08.782Z,50.80
2023-04-25T21:10:37.992Z,50.80
2023-04-25T21:13:06.032Z,50.50
2023-04-25T21:15:33.888Z,50.50
2023-04-25T21:18:01.826Z,50.50
2023-04-25T21:20:29.585Z,50.40
2023-04-25T21:22:57.374Z,50.30
2023-04-25T21:25:30.803Z,50.20
2023-04-25T21:28:00.124Z,50.20
2023-04-25T21:30:27.958Z,50.00
2023-04-25T21:32:56.206Z,50.10
2023-04-25T21:35:24.147Z,49.80
2023-04-25T21:37:52.243Z,49.70
2023-04-25T21:40:20.004Z,49.70
2023-04-25T21:42:51.103Z,49.70
2023-04-25T21:45:20.382Z,49.50
2023-04-25T21:47:48.421Z,49.40
2023-04-25T21:50:16.281Z,49.10
2023-04-25T21:52:44.019Z,48.80
2023-04-25T21:55:11.880Z,48.80
2023-04-25T21:57:39.596Z,48.70
2023-04-25T22:00:20.297Z,48.50
2023-04-25T22:02:49.524Z,48.50
2023-04-25T22:05:20.151Z,48.30
2023-04-25T22:07:48.028Z,48.10
2023-04-25T22:10:16.161Z,48.20
2023-04-25T22:12:44.580Z,47.90
2023-04-25T22:15:13.538Z,47.90
2023-04-25T22:17:41.308Z,47.70
2023-04-25T22:20:14.057Z,47.50
2023-04-25T22:22:41.962Z,47.40
2023-04-25T22:25:10.009Z,47.20
2023-04-25T22:27:39.767Z,47.10
2023-04-25T22:30:09.262Z,47.10
2023-04-25T22:32:37.025Z,47.20
2023-04-25T22:35:05.437Z,47.10
2023-04-25T22:37:35.718Z,46.90
2023-04-25T22:40:06.867Z,46.90
2023-04-25T22:42:40.306Z,46.80
2023-04-25T22:45:09.317Z,46.70
2023-04-25T22:47:37.706Z,47.20
2023-04-25T22:50:07.342Z,46.50
2023-04-25T22:52:36.347Z,46.50
2023-04-25T22:55:04.439Z,46.30
2023-04-25T22:57:32.949Z,46.00
2023-04-25T23:00:01.571Z,46.20
2023-04-25T23:02:29.536Z,46.00
2023-04-25T23:04:57.429Z,46.00
2023-04-25T23:07:26.003Z,45.70
2023-04-25T23:09:55.044Z,45.70
2023-04-25T23:12:22.755Z,45.60
2023-04-25T23:14:51.143Z,45.50
2023-04-25T23:17:18.822Z,45.50
2023-04-25T23:19:46.560Z,45.20
2023-04-25T23:22:14.267Z,45.00
2023-04-25T23:24:42.001Z,45.00
2023-04-25T23:27:11.052Z,44.90
2023-04-25T23:29:40.457Z,44.60
2023-04-25T23:32:08.746Z,44.50
2023-04-25T23:34:36.595Z,44.30
2023-04-25T23:37:04.430Z,44.10
2023-04-25T23:39:32.240Z,44.70
2023-04-25T23:42:00.376Z,44.00
2023-04-25T23:44:29.417Z,43.80
2023-04-25T23:46:57.163Z,43.80
2023-04-25T23:49:24.856Z,43.60
2023-04-25T23:51:53.434Z,43.60
2023-04-25T23:54:21.102Z,43.40
2023-04-25T23:56:48.802Z,43.30
2023-04-25T23:59:16.515Z,43.10
